Información del aeropuerto LEZG

Información de pista
Pista 12R Longitud 12198 ft Anchura 148 ft
Elevación 834 ft Umbral ft Rumbo 120
Pista 30L Longitud 12198 ft Anchura 148 ft
Elevación 863 ft Umbral ft Rumbo 300
Pista 12L Longitud 9843 ft Anchura 148 ft
Elevación 823 ft Umbral ft Rumbo 120
Pista 30R Longitud 9843 ft Anchura 148 ft
Elevación 834 ft Umbral ft Rumbo 300
Frecuencias del aeropuerto
Tipo APP Nombre APP Frecuencia 119.3 MHZ
Tipo GND Nombre GND Frecuencia 118.1 MHZ
Tipo TWR Nombre TWR Frecuencia 118.1 MHZ
Radioayudas del aeropuerto
Tipo VOR-DME Nombre Zaragoza Frecuencia 113000 KHZ
Tipo NDB Nombre Zaragoza Frecuencia 389 KHZ
Tipo TACAN Nombre Zaragoza Frecuencia 133700 KHZ
Tipo NDB Nombre Zaragoza Frecuencia 348 KHZ
Información meteorológica del aeropuerto y NOTAM
ADDS - METARS form results

(1959 UTC 08 December 2022)
Data provider http://aviationweather.gov/metar/data/
 
METAR text: LEZG 081930Z 08003KT 0300 R30R/0800N R12R/0600N R30L/0550N R12L/0750N FG VV002 10/10 Q1001
Conditions at: LEZG (ZARAGOZA (MIL/CI, ES) observed 1930 UTC 08 December 2022
Temperature: 10.0°C (50°F)
Dewpoint: 10.0°C (50°F) [RH = 100%]
Pressure (altimeter): 29.56 inches Hg (1001.0 mb)
Winds: from the E (80 degrees) at 3 MPH (3 knots; 1.5 m/s)
Visibility: 0.19 miles (0.31 km)
Ceiling: indefinite ceiling with vertical visibility of 200 feet AGL
Clouds: obscured sky
Weather: FG  (fog)

METAR text: LEZG 081900Z 06003KT 0300 R30R/1000N R12R/0750N R30L/0700N R12L/0900N FG VV002 10/10 Q1001
Conditions at: LEZG (ZARAGOZA (MIL/CI, ES) observed 1900 UTC 08 December 2022
Temperature: 10.0°C (50°F)
Dewpoint: 10.0°C (50°F) [RH = 100%]
Pressure (altimeter): 29.56 inches Hg (1001.0 mb)
Winds: from the ENE (60 degrees) at 3 MPH (3 knots; 1.5 m/s)
Visibility: 0.19 miles (0.31 km)
Ceiling: indefinite ceiling with vertical visibility of 200 feet AGL
Clouds: obscured sky
Weather: FG  (fog)

Forecast for: COR
Text: TAF COR LEZG 081744Z 0818/0918 07005KT 9999 FEW040 TX14/0914Z TN08/0906Z
Forecast period: 1800 UTC 08 December 2022 to 1800 UTC 09 December 2022
Forecast type: FROM: standard forecast or significant change
Winds: from the ENE (70 degrees) at 6 MPH (5 knots; 2.6 m/s)
Visibility: 6 or more miles (10+ km)
Ceiling: at least 12,000 feet AGL
Clouds: few clouds at 4000 feet AGL
Weather: no significant weather forecast for this period
Text: PROB40
Forecast period: 1800 UTC 08 December 2022 to 1000 UTC 09 December 2022
Forecast type: TEMPORARY: The following changes expected for less than half the time period
Visibility: 1.24 miles (2.00 km)
Ceiling: 400 feet AGL
Clouds: broken clouds at 400 feet AGL
Weather: RA BR  (moderate rain, mist)
Text: TEMPO 0818/0910 2000 RA BR BKN004
Forecast period: 1800 UTC 08 December 2022 to 0800 UTC 09 December 2022
Forecast type: TEMPORARY: The following changes expected for less than half the time period
Visibility: 0.19 miles (0.31 km)
Ceiling: indefinite ceiling with vertical visibility of 100 feet AGL
Clouds: obscured sky
Weather: FG  (fog)